Terminal Aerodrome Forecast
Issued by NWS

Home | Current Version | Previous Version | Text Only | Print | Product List | Glossary On
Versions: 1 2 3 4 5 6 7 8 9 10 11 12 13 14 15 16 17
000
FTUS43 KDLH 221321 AAA
TAFHYR
TAF AMD
KHYR 221321Z 2213/2312 25007KT P6SM OVC150
     FM221800 26007G14KT P6SM SKC
     FM230600 19004KT P6SM BKN080 WS020/22035KT=

USA.gov is the U.S. government's official web portal to all federal, state and local government web resources and services.